North Garden, Virginia
Current Conditions -  °F | °C
As of 3:53 AM on Friday 31 Oct 2014 (Local Time) from KCHO Reporting Station
Scattered Clouds Scattered Clouds  
Wind Chill: 38°   Ceiling: Unl
Heat Index: 38°   Visibility: 10mi
Dew Point: 35°   Wind: 0mph
Humidity: 89%   Direction: NA
Pressure: 30"   Gusts: NA
Location:  37.94°N, 78.64°W
Report Text: KCHO 310753Z AUTO 00000KT 10SM SCT060 03/02 A3000 RMK AO2 SLP160 T00330017
Loading
Personal Weather Stations






























Interactive Weather Map
Tropical Storm Tracking
New forecast layout! Learn more

10-Day Weather Forecast

Advertisements
Track Severe Weather on mobile